sensor_id;sensor_type;location;lat;lon;timestamp;temperature;humidity
38131;DHT22;23947;51.894;4.622;2023-11-19T00:00:19;13.50;45.60
38131;DHT22;23947;51.894;4.622;2023-11-19T00:02:45;13.50;46.10
38131;DHT22;23947;51.894;4.622;2023-11-19T00:05:13;13.50;47.00
38131;DHT22;23947;51.894;4.622;2023-11-19T00:07:39;13.60;45.90
38131;DHT22;23947;51.894;4.622;2023-11-19T00:10:09;13.60;39.30
38131;DHT22;23947;51.894;4.622;2023-11-19T00:12:39;13.60;39.20
38131;DHT22;23947;51.894;4.622;2023-11-19T00:15:06;13.50;37.60
38131;DHT22;23947;51.894;4.622;2023-11-19T00:17:37;13.60;38.80
38131;DHT22;23947;51.894;4.622;2023-11-19T00:20:04;13.50;36.00
38131;DHT22;23947;51.894;4.622;2023-11-19T00:22:31;13.50;36.10
38131;DHT22;23947;51.894;4.622;2023-11-19T00:24:58;13.50;37.40
38131;DHT22;23947;51.894;4.622;2023-11-19T00:27:25;13.50;36.70
38131;DHT22;23947;51.894;4.622;2023-11-19T00:29:50;13.50;36.40
38131;DHT22;23947;51.894;4.622;2023-11-19T00:32:16;13.50;35.20
38131;DHT22;23947;51.894;4.622;2023-11-19T00:34:44;13.50;35.50
38131;DHT22;23947;51.894;4.622;2023-11-19T00:37:10;13.50;34.10
38131;DHT22;23947;51.894;4.622;2023-11-19T00:39:35;13.40;33.00
38131;DHT22;23947;51.894;4.622;2023-11-19T00:42:01;13.50;37.20
38131;DHT22;23947;51.894;4.622;2023-11-19T00:44:26;13.50;37.20
38131;DHT22;23947;51.894;4.622;2023-11-19T00:46:52;13.40;37.70
38131;DHT22;23947;51.894;4.622;2023-11-19T00:49:18;13.40;37.00
38131;DHT22;23947;51.894;4.622;2023-11-19T00:51:43;13.40;35.00
38131;DHT22;23947;51.894;4.622;2023-11-19T00:54:10;13.40;33.50
38131;DHT22;23947;51.894;4.622;2023-11-19T00:56:36;13.40;32.90
38131;DHT22;23947;51.894;4.622;2023-11-19T00:59:02;13.40;32.00
38131;DHT22;23947;51.894;4.622;2023-11-19T01:01:29;13.40;31.20
38131;DHT22;23947;51.894;4.622;2023-11-19T01:03:55;13.40;29.70
38131;DHT22;23947;51.894;4.622;2023-11-19T01:06:32;13.30;29.50
38131;DHT22;23947;51.894;4.622;2023-11-19T01:08:58;13.40;27.20
38131;DHT22;23947;51.894;4.622;2023-11-19T01:11:27;13.30;25.80
38131;DHT22;23947;51.894;4.622;2023-11-19T01:13:53;13.30;24.60
38131;DHT22;23947;51.894;4.622;2023-11-19T01:16:19;13.30;24.60
38131;DHT22;23947;51.894;4.622;2023-11-19T01:18:49;13.20;25.40
38131;DHT22;23947;51.894;4.622;2023-11-19T01:21:15;13.20;24.00
38131;DHT22;23947;51.894;4.622;2023-11-19T01:23:41;13.20;22.60
38131;DHT22;23947;51.894;4.622;2023-11-19T01:26:13;13.10;20.80
38131;DHT22;23947;51.894;4.622;2023-11-19T01:28:40;13.10;20.50
38131;DHT22;23947;51.894;4.622;2023-11-19T01:31:08;13.00;19.90
38131;DHT22;23947;51.894;4.622;2023-11-19T01:33:37;13.00;21.00
38131;DHT22;23947;51.894;4.622;2023-11-19T01:36:03;13.00;20.70
38131;DHT22;23947;51.894;4.622;2023-11-19T01:38:29;13.00;20.40
38131;DHT22;23947;51.894;4.622;2023-11-19T01:40:57;13.00;19.50
38131;DHT22;23947;51.894;4.622;2023-11-19T01:43:39;12.90;19.20
38131;DHT22;23947;51.894;4.622;2023-11-19T01:46:08;12.90;18.70
38131;DHT22;23947;51.894;4.622;2023-11-19T01:48:41;12.90;17.90
38131;DHT22;23947;51.894;4.622;2023-11-19T01:51:08;12.90;17.90
38131;DHT22;23947;51.894;4.622;2023-11-19T01:53:36;12.80;17.40
38131;DHT22;23947;51.894;4.622;2023-11-19T01:56:05;12.80;16.90
38131;DHT22;23947;51.894;4.622;2023-11-19T01:58:31;12.80;16.30
38131;DHT22;23947;51.894;4.622;2023-11-19T02:00:57;12.80;15.70
38131;DHT22;23947;51.894;4.622;2023-11-19T02:03:24;12.80;14.40
38131;DHT22;23947;51.894;4.622;2023-11-19T02:05:51;12.80;14.30
38131;DHT22;23947;51.894;4.622;2023-11-19T02:08:18;12.80;13.40
38131;DHT22;23947;51.894;4.622;2023-11-19T02:10:46;12.80;13.20
38131;DHT22;23947;51.894;4.622;2023-11-19T02:13:12;12.70;13.70
38131;DHT22;23947;51.894;4.622;2023-11-19T02:15:40;12.70;13.20
38131;DHT22;23947;51.894;4.622;2023-11-19T02:18:26;12.70;14.30
38131;DHT22;23947;51.894;4.622;2023-11-19T02:20:59;12.60;14.60
38131;DHT22;23947;51.894;4.622;2023-11-19T02:23:27;12.60;15.10
38131;DHT22;23947;51.894;4.622;2023-11-19T02:28:31;12.60;15.60
38131;DHT22;23947;51.894;4.622;2023-11-19T02:30:58;12.50;16.10
38131;DHT22;23947;51.894;4.622;2023-11-19T02:33:24;12.50;15.80
38131;DHT22;23947;51.894;4.622;2023-11-19T02:35:50;12.50;15.60
38131;DHT22;23947;51.894;4.622;2023-11-19T02:38:16;12.50;14.90
38131;DHT22;23947;51.894;4.622;2023-11-19T02:40:42;12.50;14.90
38131;DHT22;23947;51.894;4.622;2023-11-19T02:43:08;12.50;13.20
38131;DHT22;23947;51.894;4.622;2023-11-19T02:45:34;12.40;15.00
38131;DHT22;23947;51.894;4.622;2023-11-19T02:47:59;12.30;14.60
38131;DHT22;23947;51.894;4.622;2023-11-19T02:50:27;12.30;15.60
38131;DHT22;23947;51.894;4.622;2023-11-19T02:52:54;12.30;16.30
38131;DHT22;23947;51.894;4.622;2023-11-19T02:55:24;12.30;15.70
38131;DHT22;23947;51.894;4.622;2023-11-19T02:57:50;12.20;16.30
38131;DHT22;23947;51.894;4.622;2023-11-19T03:00:22;12.30;15.80
38131;DHT22;23947;51.894;4.622;2023-11-19T03:03:01;12.30;15.20
38131;DHT22;23947;51.894;4.622;2023-11-19T03:05:35;12.20;14.20
38131;DHT22;23947;51.894;4.622;2023-11-19T03:08:01;12.30;13.50
38131;DHT22;23947;51.894;4.622;2023-11-19T03:10:26;12.20;12.60
38131;DHT22;23947;51.894;4.622;2023-11-19T03:12:54;12.20;12.10
38131;DHT22;23947;51.894;4.622;2023-11-19T03:15:22;12.20;12.10
38131;DHT22;23947;51.894;4.622;2023-11-19T03:17:48;12.10;10.80
38131;DHT22;23947;51.894;4.622;2023-11-19T03:20:13;12.10;10.90
38131;DHT22;23947;51.894;4.622;2023-11-19T03:22:42;12.10;10.10
38131;DHT22;23947;51.894;4.622;2023-11-19T03:25:08;12.10;8.50
38131;DHT22;23947;51.894;4.622;2023-11-19T03:27:37;12.10;8.10
38131;DHT22;23947;51.894;4.622;2023-11-19T03:30:09;12.10;8.30
38131;DHT22;23947;51.894;4.622;2023-11-19T03:32:35;12.10;7.40
38131;DHT22;23947;51.894;4.622;2023-11-19T03:35:02;12.10;6.70
38131;DHT22;23947;51.894;4.622;2023-11-19T03:37:29;12.10;7.80
38131;DHT22;23947;51.894;4.622;2023-11-19T03:39:56;12.10;6.70
38131;DHT22;23947;51.894;4.622;2023-11-19T03:42:27;12.00;6.50
38131;DHT22;23947;51.894;4.622;2023-11-19T03:44:54;12.00;6.50
38131;DHT22;23947;51.894;4.622;2023-11-19T03:47:20;12.00;5.90
38131;DHT22;23947;51.894;4.622;2023-11-19T03:49:49;12.00;6.10
38131;DHT22;23947;51.894;4.622;2023-11-19T03:52:15;12.00;5.40
38131;DHT22;23947;51.894;4.622;2023-11-19T03:54:41;12.00;4.30
38131;DHT22;23947;51.894;4.622;2023-11-19T03:57:06;12.00;4.30
38131;DHT22;23947;51.894;4.622;2023-11-19T03:59:32;12.00;2.80
38131;DHT22;23947;51.894;4.622;2023-11-19T04:01:58;11.90;2.50
38131;DHT22;23947;51.894;4.622;2023-11-19T04:04:26;11.90;2.80
38131;DHT22;23947;51.894;4.622;2023-11-19T04:06:52;11.90;2.60
38131;DHT22;23947;51.894;4.622;2023-11-19T04:09:18;11.90;1.00
38131;DHT22;23947;51.894;4.622;2023-11-19T04:11:44;11.90;1.00
38131;DHT22;23947;51.894;4.622;2023-11-19T04:14:12;11.90;1.00
38131;DHT22;23947;51.894;4.622;2023-11-19T04:16:38;11.90;1.00
38131;DHT22;23947;51.894;4.622;2023-11-19T04:19:04;11.80;1.00
38131;DHT22;23947;51.894;4.622;2023-11-19T04:21:30;11.80;1.00
38131;DHT22;23947;51.894;4.622;2023-11-19T04:23:56;11.80;1.00
38131;DHT22;23947;51.894;4.622;2023-11-19T04:26:25;11.80;1.30
38131;DHT22;23947;51.894;4.622;2023-11-19T04:28:50;11.80;1.60
38131;DHT22;23947;51.894;4.622;2023-11-19T04:31:16;11.80;1.50
38131;DHT22;23947;51.894;4.622;2023-11-19T04:33:42;11.80;1.80
38131;DHT22;23947;51.894;4.622;2023-11-19T04:36:09;11.80;1.60
38131;DHT22;23947;51.894;4.622;2023-11-19T04:38:35;11.80;1.70
38131;DHT22;23947;51.894;4.622;2023-11-19T04:41:01;11.80;2.70
38131;DHT22;23947;51.894;4.622;2023-11-19T04:43:26;11.80;2.20
38131;DHT22;23947;51.894;4.622;2023-11-19T04:45:52;11.80;3.00
38131;DHT22;23947;51.894;4.622;2023-11-19T04:48:18;11.80;3.20
38131;DHT22;23947;51.894;4.622;2023-11-19T04:50:43;11.80;3.80
38131;DHT22;23947;51.894;4.622;2023-11-19T04:53:09;11.80;3.30
38131;DHT22;23947;51.894;4.622;2023-11-19T04:55:35;11.80;3.50
38131;DHT22;23947;51.894;4.622;2023-11-19T04:58:01;11.80;3.50
38131;DHT22;23947;51.894;4.622;2023-11-19T05:00:26;11.80;4.40
38131;DHT22;23947;51.894;4.622;2023-11-19T05:02:52;11.80;3.40
38131;DHT22;23947;51.894;4.622;2023-11-19T05:05:17;11.90;2.30
38131;DHT22;23947;51.894;4.622;2023-11-19T05:07:43;11.90;2.70
38131;DHT22;23947;51.894;4.622;2023-11-19T05:10:09;11.80;1.90
38131;DHT22;23947;51.894;4.622;2023-11-19T05:12:35;11.80;2.30
38131;DHT22;23947;51.894;4.622;2023-11-19T05:15:00;11.80;3.40
38131;DHT22;23947;51.894;4.622;2023-11-19T05:17:26;11.80;4.00
38131;DHT22;23947;51.894;4.622;2023-11-19T05:19:52;11.70;5.00
38131;DHT22;23947;51.894;4.622;2023-11-19T05:22:18;11.70;6.30
38131;DHT22;23947;51.894;4.622;2023-11-19T05:24:45;11.70;5.70
38131;DHT22;23947;51.894;4.622;2023-11-19T05:27:13;11.80;6.60
38131;DHT22;23947;51.894;4.622;2023-11-19T05:29:39;11.80;7.00
38131;DHT22;23947;51.894;4.622;2023-11-19T05:32:06;11.70;7.30
38131;DHT22;23947;51.894;4.622;2023-11-19T05:34:32;11.80;7.10
38131;DHT22;23947;51.894;4.622;2023-11-19T05:36:58;11.70;6.50
38131;DHT22;23947;51.894;4.622;2023-11-19T05:39:23;11.70;7.20
38131;DHT22;23947;51.894;4.622;2023-11-19T05:41:50;11.70;7.00
38131;DHT22;23947;51.894;4.622;2023-11-19T05:44:15;11.70;6.80
38131;DHT22;23947;51.894;4.622;2023-11-19T05:46:42;11.70;6.70
38131;DHT22;23947;51.894;4.622;2023-11-19T05:49:11;11.70;6.00
38131;DHT22;23947;51.894;4.622;2023-11-19T05:51:40;11.70;5.20
38131;DHT22;23947;51.894;4.622;2023-11-19T05:54:09;11.60;5.40
38131;DHT22;23947;51.894;4.622;2023-11-19T05:56:35;11.60;5.40
38131;DHT22;23947;51.894;4.622;2023-11-19T05:59:01;11.60;5.40
38131;DHT22;23947;51.894;4.622;2023-11-19T06:01:29;11.60;4.90
38131;DHT22;23947;51.894;4.622;2023-11-19T06:03:55;11.60;4.70
38131;DHT22;23947;51.894;4.622;2023-11-19T06:06:20;11.60;4.60
38131;DHT22;23947;51.894;4.622;2023-11-19T06:08:46;11.60;3.90
38131;DHT22;23947;51.894;4.622;2023-11-19T06:11:12;11.60;3.80
38131;DHT22;23947;51.894;4.622;2023-11-19T06:13:44;11.60;2.60
38131;DHT22;23947;51.894;4.622;2023-11-19T06:16:10;11.60;2.10
38131;DHT22;23947;51.894;4.622;2023-11-19T06:18:39;11.70;1.50
38131;DHT22;23947;51.894;4.622;2023-11-19T06:21:04;11.60;1.80
38131;DHT22;23947;51.894;4.622;2023-11-19T06:23:30;11.60;1.60
38131;DHT22;23947;51.894;4.622;2023-11-19T06:25:56;11.70;2.00
38131;DHT22;23947;51.894;4.622;2023-11-19T06:28:22;11.70;1.70
38131;DHT22;23947;51.894;4.622;2023-11-19T06:30:48;11.60;1.70
38131;DHT22;23947;51.894;4.622;2023-11-19T06:33:13;11.60;1.40
38131;DHT22;23947;51.894;4.622;2023-11-19T06:35:39;11.60;1.60
38131;DHT22;23947;51.894;4.622;2023-11-19T06:38:05;11.60;1.50
38131;DHT22;23947;51.894;4.622;2023-11-19T06:40:32;11.60;1.80
38131;DHT22;23947;51.894;4.622;2023-11-19T06:42:58;11.50;1.50
38131;DHT22;23947;51.894;4.622;2023-11-19T06:45:23;11.50;1.00
38131;DHT22;23947;51.894;4.622;2023-11-19T06:47:49;11.50;1.00
38131;DHT22;23947;51.894;4.622;2023-11-19T06:50:15;11.50;1.00
38131;DHT22;23947;51.894;4.622;2023-11-19T06:52:41;11.60;1.00
38131;DHT22;23947;51.894;4.622;2023-11-19T06:55:07;11.60;1.00
38131;DHT22;23947;51.894;4.622;2023-11-19T06:57:33;11.70;1.00
38131;DHT22;23947;51.894;4.622;2023-11-19T06:59:59;11.60;1.00
38131;DHT22;23947;51.894;4.622;2023-11-19T07:02:24;11.60;1.00
38131;DHT22;23947;51.894;4.622;2023-11-19T07:04:51;11.70;1.00
38131;DHT22;23947;51.894;4.622;2023-11-19T07:07:16;11.70;1.00
38131;DHT22;23947;51.894;4.622;2023-11-19T07:09:42;11.70;1.00
38131;DHT22;23947;51.894;4.622;2023-11-19T07:12:08;11.70;1.00
38131;DHT22;23947;51.894;4.622;2023-11-19T07:14:34;11.70;1.00
38131;DHT22;23947;51.894;4.622;2023-11-19T07:17:00;11.70;1.00
38131;DHT22;23947;51.894;4.622;2023-11-19T07:19:26;11.70;1.00
38131;DHT22;23947;51.894;4.622;2023-11-19T07:21:51;11.70;1.20
38131;DHT22;23947;51.894;4.622;2023-11-19T07:24:22;11.70;2.50
38131;DHT22;23947;51.894;4.622;2023-11-19T07:26:50;11.70;2.00
38131;DHT22;23947;51.894;4.622;2023-11-19T07:33:08;11.70;4.10
38131;DHT22;23947;51.894;4.622;2023-11-19T07:35:40;11.70;4.50
38131;DHT22;23947;51.894;4.622;2023-11-19T07:38:08;11.70;5.00
38131;DHT22;23947;51.894;4.622;2023-11-19T07:40:36;11.60;5.60
38131;DHT22;23947;51.894;4.622;2023-11-19T07:43:16;11.60;5.90
38131;DHT22;23947;51.894;4.622;2023-11-19T08:03:32;11.50;6.40
38131;DHT22;23947;51.894;4.622;2023-11-19T08:06:23;11.50;5.90
38131;DHT22;23947;51.894;4.622;2023-11-19T08:12:13;11.60;4.70
38131;DHT22;23947;51.894;4.622;2023-11-19T08:14:47;11.60;4.10
38131;DHT22;23947;51.894;4.622;2023-11-19T08:20:36;11.70;5.30
38131;DHT22;23947;51.894;4.622;2023-11-19T08:23:08;11.70;4.70
38131;DHT22;23947;51.894;4.622;2023-11-19T08:32:25;11.90;1.00
38131;DHT22;23947;51.894;4.622;2023-11-19T08:42:23;11.90;1.00
38131;DHT22;23947;51.894;4.622;2023-11-19T08:45:25;12.00;1.00
38131;DHT22;23947;51.894;4.622;2023-11-19T08:47:51;12.00;1.00
38131;DHT22;23947;51.894;4.622;2023-11-19T08:51:04;12.00;1.00
38131;DHT22;23947;51.894;4.622;2023-11-19T08:53:35;12.00;1.00
38131;DHT22;23947;51.894;4.622;2023-11-19T08:56:18;12.10;1.00
38131;DHT22;23947;51.894;4.622;2023-11-19T08:58:56;12.10;1.00
38131;DHT22;23947;51.894;4.622;2023-11-19T09:01:49;12.10;1.00
38131;DHT22;23947;51.894;4.622;2023-11-19T09:05:02;12.00;1.00
38131;DHT22;23947;51.894;4.622;2023-11-19T09:07:40;12.10;1.00
38131;DHT22;23947;51.894;4.622;2023-11-19T09:10:56;12.00;1.00
38131;DHT22;23947;51.894;4.622;2023-11-19T09:17:40;12.10;1.00
38131;DHT22;23947;51.894;4.622;2023-11-19T09:23:06;12.20;1.00
38131;DHT22;23947;51.894;4.622;2023-11-19T09:31:51;12.20;1.00
38131;DHT22;23947;51.894;4.622;2023-11-19T09:34:31;12.20;1.00
38131;DHT22;23947;51.894;4.622;2023-11-19T09:37:24;12.20;1.00
38131;DHT22;23947;51.894;4.622;2023-11-19T09:39:53;12.30;1.00
38131;DHT22;23947;51.894;4.622;2023-11-19T09:49:50;12.30;1.00
38131;DHT22;23947;51.894;4.622;2023-11-19T09:59:47;12.50;1.00
38131;DHT22;23947;51.894;4.622;2023-11-19T10:02:48;12.60;1.00
38131;DHT22;23947;51.894;4.622;2023-11-19T10:05:41;12.70;1.00
38131;DHT22;23947;51.894;4.622;2023-11-19T10:18:31;12.80;1.00
38131;DHT22;23947;51.894;4.622;2023-11-19T10:24:57;13.10;1.00
38131;DHT22;23947;51.894;4.622;2023-11-19T10:27:55;13.10;1.00
38131;DHT22;23947;51.894;4.622;2023-11-19T10:30:59;13.20;1.00
38131;DHT22;23947;51.894;4.622;2023-11-19T10:46:53;13.40;1.00
38131;DHT22;23947;51.894;4.622;2023-11-19T10:49:22;13.40;1.00
38131;DHT22;23947;51.894;4.622;2023-11-19T10:55:24;13.30;1.00
38131;DHT22;23947;51.894;4.622;2023-11-19T11:11:27;13.20;1.00
38131;DHT22;23947;51.894;4.622;2023-11-19T11:14:00;13.10;1.00
38131;DHT22;23947;51.894;4.622;2023-11-19T11:20:08;13.20;1.00
38131;DHT22;23947;51.894;4.622;2023-11-19T11:38:54;13.20;1.00
38131;DHT22;23947;51.894;4.622;2023-11-19T11:42:18;13.30;1.00
38131;DHT22;23947;51.894;4.622;2023-11-19T12:02:20;13.40;1.00
38131;DHT22;23947;51.894;4.622;2023-11-19T12:28:17;13.70;1.00
38131;DHT22;23947;51.894;4.622;2023-11-19T12:31:09;13.70;1.00
38131;DHT22;23947;51.894;4.622;2023-11-19T12:33:43;13.70;1.00
38131;DHT22;23947;51.894;4.622;2023-11-19T12:39:42;13.80;1.00
38131;DHT22;23947;51.894;4.622;2023-11-19T12:56:33;13.70;1.00
38131;DHT22;23947;51.894;4.622;2023-11-19T13:02:18;13.60;1.00
38131;DHT22;23947;51.894;4.622;2023-11-19T13:05:30;13.60;1.00
38131;DHT22;23947;51.894;4.622;2023-11-19T13:08:05;13.40;1.00
38131;DHT22;23947;51.894;4.622;2023-11-19T13:10:51;13.40;1.00
38131;DHT22;23947;51.894;4.622;2023-11-19T13:13:17;13.30;1.00
38131;DHT22;23947;51.894;4.622;2023-11-19T13:15:42;13.40;1.00
38131;DHT22;23947;51.894;4.622;2023-11-19T13:18:10;13.40;1.00
38131;DHT22;23947;51.894;4.622;2023-11-19T13:24:06;13.50;1.00
38131;DHT22;23947;51.894;4.622;2023-11-19T13:26:32;13.40;1.00
38131;DHT22;23947;51.894;4.622;2023-11-19T13:29:01;13.40;1.00
38131;DHT22;23947;51.894;4.622;2023-11-19T13:31:27;13.40;1.00
38131;DHT22;23947;51.894;4.622;2023-11-19T13:33:52;13.50;1.00
38131;DHT22;23947;51.894;4.622;2023-11-19T13:36:19;13.50;1.00
38131;DHT22;23947;51.894;4.622;2023-11-19T13:45:55;13.30;1.00
38131;DHT22;23947;51.894;4.622;2023-11-19T13:48:24;13.20;1.00
38131;DHT22;23947;51.894;4.622;2023-11-19T13:54:38;13.20;1.00
38131;DHT22;23947;51.894;4.622;2023-11-19T13:57:13;13.30;1.00
38131;DHT22;23947;51.894;4.622;2023-11-19T13:59:56;13.30;1.00
38131;DHT22;23947;51.894;4.622;2023-11-19T14:02:28;13.20;1.00
38131;DHT22;23947;51.894;4.622;2023-11-19T14:04:56;13.20;1.00
38131;DHT22;23947;51.894;4.622;2023-11-19T14:07:38;13.20;1.00
38131;DHT22;23947;51.894;4.622;2023-11-19T14:10:13;13.20;1.00
38131;DHT22;23947;51.894;4.622;2023-11-19T14:16:06;13.20;1.00
38131;DHT22;23947;51.894;4.622;2023-11-19T14:18:40;13.20;1.00
38131;DHT22;23947;51.894;4.622;2023-11-19T14:24:19;13.10;1.00
38131;DHT22;23947;51.894;4.622;2023-11-19T14:26:46;13.10;1.00
38131;DHT22;23947;51.894;4.622;2023-11-19T14:29:55;13.20;1.00
38131;DHT22;23947;51.894;4.622;2023-11-19T14:32:27;13.20;1.00
38131;DHT22;23947;51.894;4.622;2023-11-19T14:34:58;13.30;1.00
38131;DHT22;23947;51.894;4.622;2023-11-19T14:37:33;13.20;1.00
38131;DHT22;23947;51.894;4.622;2023-11-19T14:40:17;13.30;1.00
38131;DHT22;23947;51.894;4.622;2023-11-19T14:55:36;13.30;1.00
38131;DHT22;23947;51.894;4.622;2023-11-19T14:58:11;13.30;1.00
38131;DHT22;23947;51.894;4.622;2023-11-19T15:01:11;13.30;1.00
38131;DHT22;23947;51.894;4.622;2023-11-19T15:06:08;13.30;1.00
38131;DHT22;23947;51.894;4.622;2023-11-19T15:08:34;13.20;1.00
38131;DHT22;23947;51.894;4.622;2023-11-19T15:11:00;13.10;1.00
38131;DHT22;23947;51.894;4.622;2023-11-19T15:13:27;13.10;1.00
38131;DHT22;23947;51.894;4.622;2023-11-19T15:15:53;13.00;1.00
38131;DHT22;23947;51.894;4.622;2023-11-19T15:18:21;12.90;1.00
38131;DHT22;23947;51.894;4.622;2023-11-19T15:20:47;12.90;1.00
38131;DHT22;23947;51.894;4.622;2023-11-19T15:23:16;13.00;1.00
38131;DHT22;23947;51.894;4.622;2023-11-19T15:25:41;13.00;1.00
38131;DHT22;23947;51.894;4.622;2023-11-19T15:28:07;13.00;1.00
38131;DHT22;23947;51.894;4.622;2023-11-19T15:30:33;12.90;1.00
38131;DHT22;23947;51.894;4.622;2023-11-19T15:32:59;13.00;1.00
38131;DHT22;23947;51.894;4.622;2023-11-19T15:35:24;13.00;1.00
38131;DHT22;23947;51.894;4.622;2023-11-19T15:37:51;12.90;1.00
38131;DHT22;23947;51.894;4.622;2023-11-19T15:40:16;12.90;1.00
38131;DHT22;23947;51.894;4.622;2023-11-19T15:42:43;12.90;1.00
38131;DHT22;23947;51.894;4.622;2023-11-19T15:45:11;12.90;1.00
38131;DHT22;23947;51.894;4.622;2023-11-19T15:47:37;12.80;1.00
38131;DHT22;23947;51.894;4.622;2023-11-19T15:50:04;12.80;1.00
38131;DHT22;23947;51.894;4.622;2023-11-19T15:52:30;12.80;1.00
38131;DHT22;23947;51.894;4.622;2023-11-19T15:54:57;12.70;1.00
38131;DHT22;23947;51.894;4.622;2023-11-19T15:57:22;12.70;1.00
38131;DHT22;23947;51.894;4.622;2023-11-19T15:59:48;12.80;1.00
38131;DHT22;23947;51.894;4.622;2023-11-19T16:02:14;12.70;1.00
38131;DHT22;23947;51.894;4.622;2023-11-19T16:04:41;12.60;1.00
38131;DHT22;23947;51.894;4.622;2023-11-19T16:07:06;12.50;1.00
38131;DHT22;23947;51.894;4.622;2023-11-19T16:09:32;12.60;1.00
38131;DHT22;23947;51.894;4.622;2023-11-19T16:11:58;12.50;1.00
38131;DHT22;23947;51.894;4.622;2023-11-19T16:14:24;12.50;1.00
38131;DHT22;23947;51.894;4.622;2023-11-19T16:16:50;12.40;1.00
38131;DHT22;23947;51.894;4.622;2023-11-19T16:19:16;12.40;1.00
38131;DHT22;23947;51.894;4.622;2023-11-19T16:21:43;12.40;1.00
38131;DHT22;23947;51.894;4.622;2023-11-19T16:24:09;12.40;1.00
38131;DHT22;23947;51.894;4.622;2023-11-19T16:26:34;12.30;3.00
38131;DHT22;23947;51.894;4.622;2023-11-19T16:29:02;12.30;4.20
38131;DHT22;23947;51.894;4.622;2023-11-19T16:31:28;12.30;6.10
38131;DHT22;23947;51.894;4.622;2023-11-19T16:33:54;12.20;8.30
38131;DHT22;23947;51.894;4.622;2023-11-19T16:36:20;12.20;9.90
38131;DHT22;23947;51.894;4.622;2023-11-19T16:38:46;12.10;11.80
38131;DHT22;23947;51.894;4.622;2023-11-19T16:41:20;12.10;13.00
38131;DHT22;23947;51.894;4.622;2023-11-19T16:43:51;12.00;15.30
38131;DHT22;23947;51.894;4.622;2023-11-19T16:46:18;12.00;16.90
38131;DHT22;23947;51.894;4.622;2023-11-19T16:48:47;12.00;18.80
38131;DHT22;23947;51.894;4.622;2023-11-19T16:51:14;11.90;19.50
38131;DHT22;23947;51.894;4.622;2023-11-19T16:53:47;11.90;21.20
38131;DHT22;23947;51.894;4.622;2023-11-19T16:56:16;11.80;22.60
38131;DHT22;23947;51.894;4.622;2023-11-19T16:58:45;11.90;24.80
38131;DHT22;23947;51.894;4.622;2023-11-19T17:01:12;11.80;26.30
38131;DHT22;23947;51.894;4.622;2023-11-19T17:03:39;11.80;29.40
38131;DHT22;23947;51.894;4.622;2023-11-19T17:06:06;11.80;30.00
38131;DHT22;23947;51.894;4.622;2023-11-19T17:08:32;11.80;30.60
38131;DHT22;23947;51.894;4.622;2023-11-19T17:11:02;11.80;31.70
38131;DHT22;23947;51.894;4.622;2023-11-19T17:13:29;11.80;32.30
38131;DHT22;23947;51.894;4.622;2023-11-19T17:15:55;11.80;32.10
38131;DHT22;23947;51.894;4.622;2023-11-19T17:18:21;11.80;33.60
38131;DHT22;23947;51.894;4.622;2023-11-19T17:20:47;11.80;32.80
38131;DHT22;23947;51.894;4.622;2023-11-19T17:23:14;11.70;34.10
38131;DHT22;23947;51.894;4.622;2023-11-19T17:25:39;11.70;33.60
38131;DHT22;23947;51.894;4.622;2023-11-19T17:28:06;11.80;34.80
38131;DHT22;23947;51.894;4.622;2023-11-19T17:30:36;11.80;35.00
38131;DHT22;23947;51.894;4.622;2023-11-19T17:33:02;11.80;34.20
38131;DHT22;23947;51.894;4.622;2023-11-19T17:35:31;11.80;33.30
38131;DHT22;23947;51.894;4.622;2023-11-19T17:38:03;11.80;33.20
38131;DHT22;23947;51.894;4.622;2023-11-19T17:40:32;11.80;34.00
38131;DHT22;23947;51.894;4.622;2023-11-19T17:42:57;11.80;33.80
38131;DHT22;23947;51.894;4.622;2023-11-19T17:45:23;11.90;33.40
38131;DHT22;23947;51.894;4.622;2023-11-19T17:47:49;11.90;33.00
38131;DHT22;23947;51.894;4.622;2023-11-19T17:50:14;11.90;33.60
38131;DHT22;23947;51.894;4.622;2023-11-19T17:52:40;11.90;32.50
38131;DHT22;23947;51.894;4.622;2023-11-19T17:55:07;11.90;30.90
38131;DHT22;23947;51.894;4.622;2023-11-19T17:57:41;12.00;31.50
38131;DHT22;23947;51.894;4.622;2023-11-19T18:00:07;12.00;30.60
38131;DHT22;23947;51.894;4.622;2023-11-19T18:02:43;11.90;30.90
38131;DHT22;23947;51.894;4.622;2023-11-19T18:05:13;12.00;30.90
38131;DHT22;23947;51.894;4.622;2023-11-19T18:07:40;12.00;30.70
38131;DHT22;23947;51.894;4.622;2023-11-19T18:10:09;12.00;31.20
38131;DHT22;23947;51.894;4.622;2023-11-19T18:12:36;12.00;33.40
38131;DHT22;23947;51.894;4.622;2023-11-19T18:15:04;12.00;34.30
38131;DHT22;23947;51.894;4.622;2023-11-19T18:17:29;12.00;33.20
38131;DHT22;23947;51.894;4.622;2023-11-19T18:19:55;12.00;34.60
38131;DHT22;23947;51.894;4.622;2023-11-19T18:22:21;12.00;35.30
38131;DHT22;23947;51.894;4.622;2023-11-19T18:24:46;12.00;37.40
38131;DHT22;23947;51.894;4.622;2023-11-19T18:27:13;12.00;38.70
38131;DHT22;23947;51.894;4.622;2023-11-19T18:29:38;12.00;38.60
38131;DHT22;23947;51.894;4.622;2023-11-19T18:32:05;12.00;38.50
38131;DHT22;23947;51.894;4.622;2023-11-19T18:34:35;12.00;38.70
38131;DHT22;23947;51.894;4.622;2023-11-19T18:37:00;12.00;38.60
38131;DHT22;23947;51.894;4.622;2023-11-19T18:39:26;11.90;41.50
38131;DHT22;23947;51.894;4.622;2023-11-19T18:41:52;12.00;42.10
38131;DHT22;23947;51.894;4.622;2023-11-19T18:44:18;12.00;41.60
38131;DHT22;23947;51.894;4.622;2023-11-19T18:46:44;12.00;41.80
38131;DHT22;23947;51.894;4.622;2023-11-19T18:49:09;12.00;42.60
38131;DHT22;23947;51.894;4.622;2023-11-19T18:51:35;12.00;42.20
38131;DHT22;23947;51.894;4.622;2023-11-19T18:54:01;12.10;41.30
38131;DHT22;23947;51.894;4.622;2023-11-19T18:56:28;12.00;41.90
38131;DHT22;23947;51.894;4.622;2023-11-19T18:58:54;12.00;43.10
38131;DHT22;23947;51.894;4.622;2023-11-19T19:01:21;12.00;44.80
38131;DHT22;23947;51.894;4.622;2023-11-19T19:03:48;12.00;45.40
38131;DHT22;23947;51.894;4.622;2023-11-19T19:06:14;12.00;46.00
38131;DHT22;23947;51.894;4.622;2023-11-19T19:08:41;12.10;46.10
38131;DHT22;23947;51.894;4.622;2023-11-19T19:11:11;12.10;46.50
38131;DHT22;23947;51.894;4.622;2023-11-19T19:13:38;12.10;45.30
38131;DHT22;23947;51.894;4.622;2023-11-19T19:16:07;12.20;45.10
38131;DHT22;23947;51.894;4.622;2023-11-19T19:18:33;12.20;44.00
38131;DHT22;23947;51.894;4.622;2023-11-19T19:21:01;12.30;43.40
38131;DHT22;23947;51.894;4.622;2023-11-19T19:23:26;12.20;42.00
38131;DHT22;23947;51.894;4.622;2023-11-19T19:25:52;12.30;41.30
38131;DHT22;23947;51.894;4.622;2023-11-19T19:28:18;12.30;40.70
38131;DHT22;23947;51.894;4.622;2023-11-19T19:30:43;12.30;40.10
38131;DHT22;23947;51.894;4.622;2023-11-19T19:33:10;12.30;39.50
38131;DHT22;23947;51.894;4.622;2023-11-19T19:35:37;12.30;39.40
38131;DHT22;23947;51.894;4.622;2023-11-19T19:38:02;12.30;39.30
38131;DHT22;23947;51.894;4.622;2023-11-19T19:40:28;12.30;39.50
38131;DHT22;23947;51.894;4.622;2023-11-19T19:42:54;12.30;38.10
38131;DHT22;23947;51.894;4.622;2023-11-19T19:45:21;12.30;37.60
38131;DHT22;23947;51.894;4.622;2023-11-19T19:47:46;12.40;36.80